sensor_id;sensor_type;location;lat;lon;timestamp;temperature;humidity
12089;DHT22;6107;49.078;8.578;2023-04-01T00:00:28;10.10;99.90
12089;DHT22;6107;49.078;8.578;2023-04-01T00:02:53;10.20;99.90
12089;DHT22;6107;49.078;8.578;2023-04-01T00:05:19;10.20;99.90
12089;DHT22;6107;49.078;8.578;2023-04-01T00:07:45;10.10;99.90
12089;DHT22;6107;49.078;8.578;2023-04-01T00:10:13;10.10;99.90
12089;DHT22;6107;49.078;8.578;2023-04-01T00:12:38;10.10;99.90
12089;DHT22;6107;49.078;8.578;2023-04-01T00:15:06;10.10;99.90
12089;DHT22;6107;49.078;8.578;2023-04-01T00:17:32;10.20;99.90
12089;DHT22;6107;49.078;8.578;2023-04-01T00:19:58;10.10;99.90
12089;DHT22;6107;49.078;8.578;2023-04-01T00:22:24;10.10;99.90
12089;DHT22;6107;49.078;8.578;2023-04-01T00:24:51;10.10;99.90
12089;DHT22;6107;49.078;8.578;2023-04-01T00:27:17;10.20;99.90
12089;DHT22;6107;49.078;8.578;2023-04-01T00:29:47;10.20;99.90
12089;DHT22;6107;49.078;8.578;2023-04-01T00:32:13;10.10;99.90
12089;DHT22;6107;49.078;8.578;2023-04-01T00:34:39;10.10;99.90
12089;DHT22;6107;49.078;8.578;2023-04-01T00:37:05;10.10;99.90
12089;DHT22;6107;49.078;8.578;2023-04-01T00:39:32;10.10;99.90
12089;DHT22;6107;49.078;8.578;2023-04-01T00:41:59;10.10;99.90
12089;DHT22;6107;49.078;8.578;2023-04-01T00:44:28;10.10;99.90
12089;DHT22;6107;49.078;8.578;2023-04-01T00:46:54;10.20;99.90
12089;DHT22;6107;49.078;8.578;2023-04-01T00:49:23;10.20;99.90
12089;DHT22;6107;49.078;8.578;2023-04-01T00:51:52;10.20;99.90
12089;DHT22;6107;49.078;8.578;2023-04-01T00:54:19;10.20;99.90
12089;DHT22;6107;49.078;8.578;2023-04-01T00:56:48;10.20;99.90
12089;DHT22;6107;49.078;8.578;2023-04-01T00:59:31;10.20;99.90
12089;DHT22;6107;49.078;8.578;2023-04-01T01:01:58;10.20;99.90
12089;DHT22;6107;49.078;8.578;2023-04-01T01:04:27;10.20;99.90
12089;DHT22;6107;49.078;8.578;2023-04-01T01:12:36;10.10;99.90
12089;DHT22;6107;49.078;8.578;2023-04-01T01:15:20;10.10;99.90
12089;DHT22;6107;49.078;8.578;2023-04-01T01:18:18;10.10;99.90
12089;DHT22;6107;49.078;8.578;2023-04-01T01:26:49;10.10;99.90
12089;DHT22;6107;49.078;8.578;2023-04-01T01:29:30;10.10;99.90
12089;DHT22;6107;49.078;8.578;2023-04-01T01:32:31;10.10;99.90
12089;DHT22;6107;49.078;8.578;2023-04-01T01:35:19;10.10;99.90
12089;DHT22;6107;49.078;8.578;2023-04-01T01:37:46;10.10;99.90
12089;DHT22;6107;49.078;8.578;2023-04-01T01:40:13;10.10;99.90
12089;DHT22;6107;49.078;8.578;2023-04-01T01:42:43;10.00;99.90
12089;DHT22;6107;49.078;8.578;2023-04-01T01:45:12;10.00;99.90
12089;DHT22;6107;49.078;8.578;2023-04-01T01:47:40;9.90;99.90
12089;DHT22;6107;49.078;8.578;2023-04-01T01:50:07;9.80;99.90
12089;DHT22;6107;49.078;8.578;2023-04-01T01:52:34;9.80;99.90
12089;DHT22;6107;49.078;8.578;2023-04-01T01:54:59;9.80;99.90
12089;DHT22;6107;49.078;8.578;2023-04-01T01:57:30;9.70;99.90
12089;DHT22;6107;49.078;8.578;2023-04-01T02:00:01;9.70;99.90
12089;DHT22;6107;49.078;8.578;2023-04-01T02:02:28;9.60;99.90
12089;DHT22;6107;49.078;8.578;2023-04-01T02:04:56;9.60;99.90
12089;DHT22;6107;49.078;8.578;2023-04-01T02:07:27;9.70;99.90
12089;DHT22;6107;49.078;8.578;2023-04-01T02:09:54;9.60;99.90
12089;DHT22;6107;49.078;8.578;2023-04-01T02:12:21;9.70;99.90
12089;DHT22;6107;49.078;8.578;2023-04-01T02:15:13;9.70;99.90
12089;DHT22;6107;49.078;8.578;2023-04-01T02:17:44;9.70;99.90
12089;DHT22;6107;49.078;8.578;2023-04-01T02:20:15;9.70;99.90
12089;DHT22;6107;49.078;8.578;2023-04-01T02:22:48;9.80;99.90
12089;DHT22;6107;49.078;8.578;2023-04-01T02:25:19;9.70;99.90
12089;DHT22;6107;49.078;8.578;2023-04-01T02:27:46;9.70;99.90
12089;DHT22;6107;49.078;8.578;2023-04-01T02:30:14;9.70;99.90
12089;DHT22;6107;49.078;8.578;2023-04-01T02:32:40;9.80;99.90
12089;DHT22;6107;49.078;8.578;2023-04-01T02:35:10;9.80;99.90
12089;DHT22;6107;49.078;8.578;2023-04-01T02:37:38;9.80;99.90
12089;DHT22;6107;49.078;8.578;2023-04-01T02:40:06;9.80;99.90
12089;DHT22;6107;49.078;8.578;2023-04-01T02:42:33;9.90;99.90
12089;DHT22;6107;49.078;8.578;2023-04-01T02:44:58;9.80;99.90
12089;DHT22;6107;49.078;8.578;2023-04-01T02:47:24;9.80;99.90
12089;DHT22;6107;49.078;8.578;2023-04-01T02:49:50;9.90;99.90
12089;DHT22;6107;49.078;8.578;2023-04-01T02:52:15;9.90;99.90
12089;DHT22;6107;49.078;8.578;2023-04-01T02:54:41;9.80;99.90
12089;DHT22;6107;49.078;8.578;2023-04-01T02:57:06;9.80;99.90
12089;DHT22;6107;49.078;8.578;2023-04-01T02:59:32;9.80;99.90
12089;DHT22;6107;49.078;8.578;2023-04-01T03:01:57;9.80;99.90
12089;DHT22;6107;49.078;8.578;2023-04-01T03:04:23;9.80;99.90
12089;DHT22;6107;49.078;8.578;2023-04-01T03:06:48;9.80;99.90
12089;DHT22;6107;49.078;8.578;2023-04-01T03:09:14;9.80;99.90
12089;DHT22;6107;49.078;8.578;2023-04-01T03:11:39;9.80;99.90
12089;DHT22;6107;49.078;8.578;2023-04-01T03:14:06;9.80;99.90
12089;DHT22;6107;49.078;8.578;2023-04-01T03:16:32;9.80;99.90
12089;DHT22;6107;49.078;8.578;2023-04-01T03:18:58;9.80;99.90
12089;DHT22;6107;49.078;8.578;2023-04-01T03:21:25;9.80;99.90
12089;DHT22;6107;49.078;8.578;2023-04-01T03:23:51;9.80;99.90
12089;DHT22;6107;49.078;8.578;2023-04-01T03:26:17;9.80;99.90
12089;DHT22;6107;49.078;8.578;2023-04-01T03:28:43;9.80;99.90
12089;DHT22;6107;49.078;8.578;2023-04-01T03:31:10;9.80;99.90
12089;DHT22;6107;49.078;8.578;2023-04-01T03:33:35;9.80;99.90
12089;DHT22;6107;49.078;8.578;2023-04-01T03:36:01;9.80;99.90
12089;DHT22;6107;49.078;8.578;2023-04-01T03:38:26;9.80;99.90
12089;DHT22;6107;49.078;8.578;2023-04-01T03:40:52;9.80;99.90
12089;DHT22;6107;49.078;8.578;2023-04-01T03:43:17;9.80;99.90
12089;DHT22;6107;49.078;8.578;2023-04-01T03:45:45;9.80;99.90
12089;DHT22;6107;49.078;8.578;2023-04-01T03:48:10;9.80;99.90
12089;DHT22;6107;49.078;8.578;2023-04-01T03:50:36;9.90;99.90
12089;DHT22;6107;49.078;8.578;2023-04-01T03:53:01;9.80;99.90
12089;DHT22;6107;49.078;8.578;2023-04-01T03:55:27;9.90;99.90
12089;DHT22;6107;49.078;8.578;2023-04-01T03:57:52;9.90;99.90
12089;DHT22;6107;49.078;8.578;2023-04-01T04:00:18;9.90;99.90
12089;DHT22;6107;49.078;8.578;2023-04-01T04:02:44;9.90;99.90
12089;DHT22;6107;49.078;8.578;2023-04-01T04:05:10;9.90;99.90
12089;DHT22;6107;49.078;8.578;2023-04-01T04:07:36;9.90;99.90
12089;DHT22;6107;49.078;8.578;2023-04-01T04:10:02;9.90;99.90
12089;DHT22;6107;49.078;8.578;2023-04-01T04:12:27;9.90;99.90
12089;DHT22;6107;49.078;8.578;2023-04-01T04:14:53;10.00;99.90
12089;DHT22;6107;49.078;8.578;2023-04-01T04:17:18;10.00;99.90
12089;DHT22;6107;49.078;8.578;2023-04-01T04:19:44;10.00;99.90
12089;DHT22;6107;49.078;8.578;2023-04-01T04:22:09;10.00;99.90
12089;DHT22;6107;49.078;8.578;2023-04-01T04:24:35;10.00;99.90
12089;DHT22;6107;49.078;8.578;2023-04-01T04:27:01;10.00;99.90
12089;DHT22;6107;49.078;8.578;2023-04-01T04:29:26;10.00;99.90
12089;DHT22;6107;49.078;8.578;2023-04-01T04:31:52;10.00;99.90
12089;DHT22;6107;49.078;8.578;2023-04-01T04:34:18;10.00;99.90
12089;DHT22;6107;49.078;8.578;2023-04-01T04:36:44;10.10;99.90
12089;DHT22;6107;49.078;8.578;2023-04-01T04:39:09;10.10;99.90
12089;DHT22;6107;49.078;8.578;2023-04-01T04:41:37;10.10;99.90
12089;DHT22;6107;49.078;8.578;2023-04-01T04:44:03;10.10;99.90
12089;DHT22;6107;49.078;8.578;2023-04-01T04:46:28;10.10;99.90
12089;DHT22;6107;49.078;8.578;2023-04-01T04:48:54;10.10;99.90
12089;DHT22;6107;49.078;8.578;2023-04-01T04:51:21;10.10;99.90
12089;DHT22;6107;49.078;8.578;2023-04-01T04:53:47;10.10;99.90
12089;DHT22;6107;49.078;8.578;2023-04-01T04:56:16;10.10;99.90
12089;DHT22;6107;49.078;8.578;2023-04-01T04:58:42;10.20;99.90
12089;DHT22;6107;49.078;8.578;2023-04-01T05:01:13;10.20;99.90
12089;DHT22;6107;49.078;8.578;2023-04-01T05:03:39;10.10;99.90
12089;DHT22;6107;49.078;8.578;2023-04-01T05:06:06;10.10;99.90
12089;DHT22;6107;49.078;8.578;2023-04-01T05:08:32;10.10;99.90
12089;DHT22;6107;49.078;8.578;2023-04-01T05:10:58;10.10;99.90
12089;DHT22;6107;49.078;8.578;2023-04-01T05:13:24;10.20;99.90
12089;DHT22;6107;49.078;8.578;2023-04-01T05:15:50;10.10;99.90
12089;DHT22;6107;49.078;8.578;2023-04-01T05:18:15;10.10;99.90
12089;DHT22;6107;49.078;8.578;2023-04-01T05:20:46;10.20;99.90
12089;DHT22;6107;49.078;8.578;2023-04-01T05:23:12;10.20;99.90
12089;DHT22;6107;49.078;8.578;2023-04-01T05:25:38;10.20;99.90
12089;DHT22;6107;49.078;8.578;2023-04-01T05:28:03;10.20;99.90
12089;DHT22;6107;49.078;8.578;2023-04-01T05:30:29;10.10;99.90
12089;DHT22;6107;49.078;8.578;2023-04-01T05:32:55;10.10;99.90
12089;DHT22;6107;49.078;8.578;2023-04-01T05:35:20;10.10;99.90
12089;DHT22;6107;49.078;8.578;2023-04-01T05:37:45;10.10;99.90
12089;DHT22;6107;49.078;8.578;2023-04-01T05:40:11;10.10;99.90
12089;DHT22;6107;49.078;8.578;2023-04-01T05:42:37;10.10;99.90
12089;DHT22;6107;49.078;8.578;2023-04-01T05:45:02;10.10;99.90
12089;DHT22;6107;49.078;8.578;2023-04-01T05:47:28;10.00;99.90
12089;DHT22;6107;49.078;8.578;2023-04-01T05:49:54;10.00;99.90
12089;DHT22;6107;49.078;8.578;2023-04-01T05:52:20;10.00;99.90
12089;DHT22;6107;49.078;8.578;2023-04-01T05:54:46;10.00;99.90
12089;DHT22;6107;49.078;8.578;2023-04-01T05:57:11;9.90;99.90
12089;DHT22;6107;49.078;8.578;2023-04-01T05:59:37;10.00;99.90
12089;DHT22;6107;49.078;8.578;2023-04-01T06:02:02;9.90;99.90
12089;DHT22;6107;49.078;8.578;2023-04-01T06:04:32;9.90;99.90
12089;DHT22;6107;49.078;8.578;2023-04-01T06:06:59;9.90;99.90
12089;DHT22;6107;49.078;8.578;2023-04-01T06:09:30;9.90;99.90
12089;DHT22;6107;49.078;8.578;2023-04-01T06:17:59;9.70;99.90
12089;DHT22;6107;49.078;8.578;2023-04-01T06:21:05;9.60;99.90
12089;DHT22;6107;49.078;8.578;2023-04-01T06:23:46;9.60;99.90
12089;DHT22;6107;49.078;8.578;2023-04-01T06:34:42;9.50;99.90
12089;DHT22;6107;49.078;8.578;2023-04-01T06:37:35;9.50;99.90
12089;DHT22;6107;49.078;8.578;2023-04-01T06:48:57;9.50;99.90
12089;DHT22;6107;49.078;8.578;2023-04-01T06:51:43;9.50;99.90
12089;DHT22;6107;49.078;8.578;2023-04-01T06:54:16;9.50;99.90
12089;DHT22;6107;49.078;8.578;2023-04-01T06:56:45;9.50;99.90
12089;DHT22;6107;49.078;8.578;2023-04-01T06:59:25;9.50;99.90
12089;DHT22;6107;49.078;8.578;2023-04-01T07:01:57;9.50;99.90
12089;DHT22;6107;49.078;8.578;2023-04-01T07:04:34;9.60;99.90
12089;DHT22;6107;49.078;8.578;2023-04-01T07:07:18;9.50;99.90
12089;DHT22;6107;49.078;8.578;2023-04-01T07:09:52;9.50;99.90
12089;DHT22;6107;49.078;8.578;2023-04-01T07:14:58;9.50;99.90
12089;DHT22;6107;49.078;8.578;2023-04-01T07:17:30;9.50;99.90
12089;DHT22;6107;49.078;8.578;2023-04-01T07:20:03;9.50;99.90
12089;DHT22;6107;49.078;8.578;2023-04-01T07:22:51;9.50;99.90
12089;DHT22;6107;49.078;8.578;2023-04-01T07:27:44;9.70;99.90
12089;DHT22;6107;49.078;8.578;2023-04-01T07:30:19;9.50;99.90
12089;DHT22;6107;49.078;8.578;2023-04-01T07:33:35;9.50;99.90
12089;DHT22;6107;49.078;8.578;2023-04-01T07:38:30;9.40;99.90
12089;DHT22;6107;49.078;8.578;2023-04-01T07:41:15;9.40;99.90
12089;DHT22;6107;49.078;8.578;2023-04-01T07:43:44;9.40;99.90
12089;DHT22;6107;49.078;8.578;2023-04-01T07:49:30;9.30;99.90
12089;DHT22;6107;49.078;8.578;2023-04-01T07:52:12;9.30;99.90
12089;DHT22;6107;49.078;8.578;2023-04-01T07:55:05;9.20;99.90
12089;DHT22;6107;49.078;8.578;2023-04-01T08:00:27;9.20;99.90
12089;DHT22;6107;49.078;8.578;2023-04-01T08:05:52;9.20;99.90
12089;DHT22;6107;49.078;8.578;2023-04-01T08:11:21;9.20;99.90
12089;DHT22;6107;49.078;8.578;2023-04-01T08:14:08;9.20;99.90
12089;DHT22;6107;49.078;8.578;2023-04-01T08:16:45;9.20;99.90
12089;DHT22;6107;49.078;8.578;2023-04-01T08:19:42;9.20;99.90
12089;DHT22;6107;49.078;8.578;2023-04-01T08:22:22;9.20;99.90
12089;DHT22;6107;49.078;8.578;2023-04-01T08:24:49;9.20;99.90
12089;DHT22;6107;49.078;8.578;2023-04-01T08:27:35;9.30;99.90
12089;DHT22;6107;49.078;8.578;2023-04-01T08:30:04;9.30;99.90
12089;DHT22;6107;49.078;8.578;2023-04-01T08:32:42;9.40;99.90
12089;DHT22;6107;49.078;8.578;2023-04-01T08:35:18;9.50;99.90
12089;DHT22;6107;49.078;8.578;2023-04-01T08:37:48;9.60;99.90
12089;DHT22;6107;49.078;8.578;2023-04-01T08:49:10;9.80;99.90
12089;DHT22;6107;49.078;8.578;2023-04-01T08:57:35;9.80;99.90
12089;DHT22;6107;49.078;8.578;2023-04-01T09:00:32;9.80;99.90
12089;DHT22;6107;49.078;8.578;2023-04-01T09:09:39;10.00;99.90
12089;DHT22;6107;49.078;8.578;2023-04-01T09:12:25;10.00;99.90
12089;DHT22;6107;49.078;8.578;2023-04-01T09:17:45;9.90;99.90
12089;DHT22;6107;49.078;8.578;2023-04-01T09:23:36;9.90;99.90
12089;DHT22;6107;49.078;8.578;2023-04-01T09:35:15;10.00;99.90
12089;DHT22;6107;49.078;8.578;2023-04-01T09:37:57;10.00;99.90
12089;DHT22;6107;49.078;8.578;2023-04-01T09:54:45;9.90;99.90
12089;DHT22;6107;49.078;8.578;2023-04-01T09:57:30;9.80;99.90
12089;DHT22;6107;49.078;8.578;2023-04-01T10:03:23;10.10;99.90
12089;DHT22;6107;49.078;8.578;2023-04-01T10:09:11;10.10;99.90
12089;DHT22;6107;49.078;8.578;2023-04-01T10:21:05;9.90;99.90
12089;DHT22;6107;49.078;8.578;2023-04-01T10:23:54;9.90;99.90
12089;DHT22;6107;49.078;8.578;2023-04-01T10:29:42;9.90;99.90
12089;DHT22;6107;49.078;8.578;2023-04-01T10:35:51;9.90;99.90
12089;DHT22;6107;49.078;8.578;2023-04-01T10:45:13;9.80;99.90
12089;DHT22;6107;49.078;8.578;2023-04-01T10:55:32;9.90;99.90
12089;DHT22;6107;49.078;8.578;2023-04-01T11:00:59;9.80;99.90
12089;DHT22;6107;49.078;8.578;2023-04-01T11:18:12;9.80;99.90
12089;DHT22;6107;49.078;8.578;2023-04-01T11:20:56;9.90;99.90
12089;DHT22;6107;49.078;8.578;2023-04-01T11:29:03;10.00;99.90
12089;DHT22;6107;49.078;8.578;2023-04-01T11:31:40;10.00;99.90
12089;DHT22;6107;49.078;8.578;2023-04-01T11:34:24;10.10;99.90
12089;DHT22;6107;49.078;8.578;2023-04-01T11:37:23;10.20;99.90
12089;DHT22;6107;49.078;8.578;2023-04-01T11:40:03;10.20;99.90
12089;DHT22;6107;49.078;8.578;2023-04-01T11:42:38;10.00;99.90
12089;DHT22;6107;49.078;8.578;2023-04-01T11:51:25;10.00;99.90
12089;DHT22;6107;49.078;8.578;2023-04-01T11:59:13;9.80;99.90
12089;DHT22;6107;49.078;8.578;2023-04-01T12:01:59;9.90;99.90
12089;DHT22;6107;49.078;8.578;2023-04-01T12:05:33;9.80;99.90
12089;DHT22;6107;49.078;8.578;2023-04-01T12:10:26;9.90;99.90
12089;DHT22;6107;49.078;8.578;2023-04-01T12:13:19;10.10;99.90
12089;DHT22;6107;49.078;8.578;2023-04-01T12:16:04;10.10;99.90
12089;DHT22;6107;49.078;8.578;2023-04-01T12:18:50;10.00;99.90
12089;DHT22;6107;49.078;8.578;2023-04-01T12:21:35;10.00;99.90
12089;DHT22;6107;49.078;8.578;2023-04-01T12:29:44;10.10;99.90
12089;DHT22;6107;49.078;8.578;2023-04-01T12:40:48;9.90;99.90
12089;DHT22;6107;49.078;8.578;2023-04-01T12:44:00;10.10;99.90
12089;DHT22;6107;49.078;8.578;2023-04-01T12:46:37;10.10;99.90
12089;DHT22;6107;49.078;8.578;2023-04-01T12:49:42;9.90;99.90
12089;DHT22;6107;49.078;8.578;2023-04-01T12:52:14;9.90;99.90
12089;DHT22;6107;49.078;8.578;2023-04-01T12:55:00;10.00;99.90
12089;DHT22;6107;49.078;8.578;2023-04-01T13:00:48;10.00;99.90
12089;DHT22;6107;49.078;8.578;2023-04-01T13:06:01;10.10;99.90
12089;DHT22;6107;49.078;8.578;2023-04-01T13:08:40;10.20;99.90
12089;DHT22;6107;49.078;8.578;2023-04-01T13:11:23;10.20;99.90
12089;DHT22;6107;49.078;8.578;2023-04-01T13:14:14;10.00;99.90
12089;DHT22;6107;49.078;8.578;2023-04-01T13:16:48;10.00;99.90
12089;DHT22;6107;49.078;8.578;2023-04-01T13:21:58;10.00;99.90
12089;DHT22;6107;49.078;8.578;2023-04-01T13:27:12;10.20;99.90
12089;DHT22;6107;49.078;8.578;2023-04-01T13:33:13;10.10;99.90
12089;DHT22;6107;49.078;8.578;2023-04-01T13:35:46;10.10;99.90
12089;DHT22;6107;49.078;8.578;2023-04-01T13:44:02;10.00;99.90
12089;DHT22;6107;49.078;8.578;2023-04-01T13:52:21;10.00;99.90
12089;DHT22;6107;49.078;8.578;2023-04-01T13:58:04;9.90;99.90
12089;DHT22;6107;49.078;8.578;2023-04-01T14:03:39;10.10;99.90
12089;DHT22;6107;49.078;8.578;2023-04-01T14:06:19;10.00;99.90
12089;DHT22;6107;49.078;8.578;2023-04-01T14:08:55;10.10;99.90
12089;DHT22;6107;49.078;8.578;2023-04-01T14:17:32;10.10;99.90
12089;DHT22;6107;49.078;8.578;2023-04-01T14:22:51;10.20;99.90
12089;DHT22;6107;49.078;8.578;2023-04-01T14:25:58;10.30;99.90
12089;DHT22;6107;49.078;8.578;2023-04-01T14:35:16;10.20;99.90
12089;DHT22;6107;49.078;8.578;2023-04-01T14:38:23;10.30;99.90
12089;DHT22;6107;49.078;8.578;2023-04-01T14:41:06;10.10;99.90
12089;DHT22;6107;49.078;8.578;2023-04-01T14:43:47;10.00;99.90
12089;DHT22;6107;49.078;8.578;2023-04-01T14:49:21;10.20;99.90
12089;DHT22;6107;49.078;8.578;2023-04-01T14:51:48;10.00;99.90
12089;DHT22;6107;49.078;8.578;2023-04-01T14:54:17;10.10;99.90
12089;DHT22;6107;49.078;8.578;2023-04-01T14:59:40;10.00;99.90
12089;DHT22;6107;49.078;8.578;2023-04-01T15:08:33;10.20;99.90
12089;DHT22;6107;49.078;8.578;2023-04-01T15:18:52;10.20;99.90
12089;DHT22;6107;49.078;8.578;2023-04-01T15:21:31;10.00;99.90
12089;DHT22;6107;49.078;8.578;2023-04-01T15:25:05;10.10;99.90
12089;DHT22;6107;49.078;8.578;2023-04-01T15:30:02;10.10;99.90
12089;DHT22;6107;49.078;8.578;2023-04-01T15:32:55;10.10;99.90
12089;DHT22;6107;49.078;8.578;2023-04-01T15:35:36;10.10;99.90
12089;DHT22;6107;49.078;8.578;2023-04-01T15:43:32;10.40;99.90
12089;DHT22;6107;49.078;8.578;2023-04-01T15:49:21;10.60;99.90
12089;DHT22;6107;49.078;8.578;2023-04-01T15:55:27;10.60;99.90
12089;DHT22;6107;49.078;8.578;2023-04-01T16:00:41;10.40;99.90
12089;DHT22;6107;49.078;8.578;2023-04-01T16:06:38;10.50;99.90
12089;DHT22;6107;49.078;8.578;2023-04-01T16:09:23;10.50;99.90
12089;DHT22;6107;49.078;8.578;2023-04-01T16:14:55;10.40;99.90
12089;DHT22;6107;49.078;8.578;2023-04-01T16:20:24;10.40;99.90
12089;DHT22;6107;49.078;8.578;2023-04-01T16:23:04;10.50;99.90
12089;DHT22;6107;49.078;8.578;2023-04-01T16:25:36;10.50;99.90
12089;DHT22;6107;49.078;8.578;2023-04-01T16:31:10;10.40;99.90
12089;DHT22;6107;49.078;8.578;2023-04-01T16:36:35;10.50;99.90
12089;DHT22;6107;49.078;8.578;2023-04-01T16:39:22;10.60;99.90
12089;DHT22;6107;49.078;8.578;2023-04-01T16:42:08;10.50;99.90
12089;DHT22;6107;49.078;8.578;2023-04-01T16:44:52;10.50;99.90
12089;DHT22;6107;49.078;8.578;2023-04-01T16:47:22;10.60;99.90
12089;DHT22;6107;49.078;8.578;2023-04-01T16:49:56;10.50;99.90
12089;DHT22;6107;49.078;8.578;2023-04-01T16:52:35;10.50;99.90
12089;DHT22;6107;49.078;8.578;2023-04-01T16:55:15;10.60;99.90
12089;DHT22;6107;49.078;8.578;2023-04-01T16:57:57;10.50;99.90
12089;DHT22;6107;49.078;8.578;2023-04-01T17:00:37;10.50;99.90
12089;DHT22;6107;49.078;8.578;2023-04-01T17:06:06;10.50;99.90
12089;DHT22;6107;49.078;8.578;2023-04-01T17:11:37;10.40;99.90
12089;DHT22;6107;49.078;8.578;2023-04-01T17:14:23;10.40;99.90
12089;DHT22;6107;49.078;8.578;2023-04-01T17:17:01;10.30;99.90
12089;DHT22;6107;49.078;8.578;2023-04-01T17:22:31;10.30;99.90
12089;DHT22;6107;49.078;8.578;2023-04-01T17:28:24;10.30;99.90
12089;DHT22;6107;49.078;8.578;2023-04-01T17:31:01;10.20;99.90
12089;DHT22;6107;49.078;8.578;2023-04-01T17:33:52;10.20;99.90
12089;DHT22;6107;49.078;8.578;2023-04-01T17:36:26;10.20;99.90
12089;DHT22;6107;49.078;8.578;2023-04-01T17:48:00;10.20;99.90
12089;DHT22;6107;49.078;8.578;2023-04-01T17:56:37;10.20;99.90
12089;DHT22;6107;49.078;8.578;2023-04-01T17:59:52;10.10;99.90
12089;DHT22;6107;49.078;8.578;2023-04-01T18:11:18;10.00;99.90
12089;DHT22;6107;49.078;8.578;2023-04-01T18:13:58;9.90;99.90
12089;DHT22;6107;49.078;8.578;2023-04-01T18:17:12;9.90;99.90
12089;DHT22;6107;49.078;8.578;2023-04-01T18:22:21;9.90;99.90
12089;DHT22;6107;49.078;8.578;2023-04-01T18:25:34;9.90;99.90
12089;DHT22;6107;49.078;8.578;2023-04-01T18:27:38;9.80;99.90
12089;DHT22;6107;49.078;8.578;2023-04-01T18:30:17;9.80;99.90
12089;DHT22;6107;49.078;8.578;2023-04-01T18:32:53;9.80;99.90
12089;DHT22;6107;49.078;8.578;2023-04-01T18:38:29;9.80;99.90
12089;DHT22;6107;49.078;8.578;2023-04-01T18:46:46;9.80;99.90
12089;DHT22;6107;49.078;8.578;2023-04-01T18:49:52;9.70;99.90
12089;DHT22;6107;49.078;8.578;2023-04-01T18:52:36;9.70;99.90
12089;DHT22;6107;49.078;8.578;2023-04-01T18:57:48;9.70;99.90
12089;DHT22;6107;49.078;8.578;2023-04-01T19:00:25;9.60;99.90
12089;DHT22;6107;49.078;8.578;2023-04-01T19:05:43;9.70;99.90
12089;DHT22;6107;49.078;8.578;2023-04-01T19:08:28;9.60;99.90
12089;DHT22;6107;49.078;8.578;2023-04-01T19:14:05;9.70;99.90
12089;DHT22;6107;49.078;8.578;2023-04-01T19:26:00;9.70;99.90
12089;DHT22;6107;49.078;8.578;2023-04-01T19:40:08;9.60;99.90
12089;DHT22;6107;49.078;8.578;2023-04-01T19:42:59;9.70;99.90
12089;DHT22;6107;49.078;8.578;2023-04-01T19:45:52;9.70;99.90
12089;DHT22;6107;49.078;8.578;2023-04-01T19:48:44;9.70;99.90
12089;DHT22;6107;49.078;8.578;2023-04-01T19:51:24;9.70;99.90
12089;DHT22;6107;49.078;8.578;2023-04-01T19:59:49;9.60;99.90
12089;DHT22;6107;49.078;8.578;2023-04-01T20:02:53;9.70;99.90
12089;DHT22;6107;49.078;8.578;2023-04-01T20:05:42;9.60;99.90
12089;DHT22;6107;49.078;8.578;2023-04-01T20:08:17;9.60;99.90
12089;DHT22;6107;49.078;8.578;2023-04-01T20:13:47;9.70;99.90
12089;DHT22;6107;49.078;8.578;2023-04-01T20:16:14;9.70;99.90
12089;DHT22;6107;49.078;8.578;2023-04-01T20:18:52;9.70;99.90
12089;DHT22;6107;49.078;8.578;2023-04-01T20:21:37;9.70;99.90
12089;DHT22;6107;49.078;8.578;2023-04-01T20:26:48;9.80;99.90
12089;DHT22;6107;49.078;8.578;2023-04-01T20:40:45;9.80;99.90
12089;DHT22;6107;49.078;8.578;2023-04-01T20:49:19;9.80;99.90
12089;DHT22;6107;49.078;8.578;2023-04-01T21:00:38;9.80;99.90
12089;DHT22;6107;49.078;8.578;2023-04-01T21:06:10;9.80;99.90
12089;DHT22;6107;49.078;8.578;2023-04-01T21:08:49;9.70;99.90
12089;DHT22;6107;49.078;8.578;2023-04-01T21:11:42;9.80;99.90
12089;DHT22;6107;49.078;8.578;2023-04-01T21:28:29;9.70;99.90
12089;DHT22;6107;49.078;8.578;2023-04-01T21:31:21;9.80;99.90
12089;DHT22;6107;49.078;8.578;2023-04-01T21:39:30;9.60;99.90
12089;DHT22;6107;49.078;8.578;2023-04-01T22:06:53;9.60;99.90
12089;DHT22;6107;49.078;8.578;2023-04-01T22:12:37;9.60;99.90
12089;DHT22;6107;49.078;8.578;2023-04-01T22:17:45;9.60;99.90
12089;DHT22;6107;49.078;8.578;2023-04-01T22:20:28;9.60;99.90
12089;DHT22;6107;49.078;8.578;2023-04-01T22:23:07;9.60;99.90
12089;DHT22;6107;49.078;8.578;2023-04-01T22:28:57;9.60;99.90
12089;DHT22;6107;49.078;8.578;2023-04-01T22:31:29;9.50;99.90
12089;DHT22;6107;49.078;8.578;2023-04-01T22:39:37;9.60;99.90
12089;DHT22;6107;49.078;8.578;2023-04-01T22:42:18;9.60;99.90
12089;DHT22;6107;49.078;8.578;2023-04-01T22:47:52;9.50;99.90
12089;DHT22;6107;49.078;8.578;2023-04-01T22:50:39;9.50;99.90
12089;DHT22;6107;49.078;8.578;2023-04-01T22:53:41;9.50;99.90
12089;DHT22;6107;49.078;8.578;2023-04-01T22:56:17;9.50;99.90
12089;DHT22;6107;49.078;8.578;2023-04-01T22:59:00;9.50;99.90
12089;DHT22;6107;49.078;8.578;2023-04-01T23:01:32;9.50;99.90
12089;DHT22;6107;49.078;8.578;2023-04-01T23:04:03;9.50;99.90
12089;DHT22;6107;49.078;8.578;2023-04-01T23:06:35;9.50;99.90
12089;DHT22;6107;49.078;8.578;2023-04-01T23:09:16;9.50;99.90
12089;DHT22;6107;49.078;8.578;2023-04-01T23:22:23;9.60;99.90
12089;DHT22;6107;49.078;8.578;2023-04-01T23:27:40;9.60;99.90
12089;DHT22;6107;49.078;8.578;2023-04-01T23:38:17;9.60;99.90
12089;DHT22;6107;49.078;8.578;2023-04-01T23:40:43;9.50;99.90
12089;DHT22;6107;49.078;8.578;2023-04-01T23:43:28;9.50;99.90
12089;DHT22;6107;49.078;8.578;2023-04-01T23:45:55;9.50;99.90
12089;DHT22;6107;49.078;8.578;2023-04-01T23:48:26;9.40;99.90
12089;DHT22;6107;49.078;8.578;2023-04-01T23:50:53;9.40;99.90
12089;DHT22;6107;49.078;8.578;2023-04-01T23:53:21;9.50;99.90
12089;DHT22;6107;49.078;8.578;2023-04-01T23:55:51;9.40;99.90
12089;DHT22;6107;49.078;8.578;2023-04-01T23:58:26;9.30;99.90
